Brookside, New Jersey
Current Conditions -  °F | °C
As of 5:45 PM on Wednesday 22 Oct 2014 (Local Time) from KMMU Reporting Station
Light Rain Light Rain  
Wind Chill: 54°   Ceiling: 2200
Heat Index: 54°   Visibility: 5mi
Dew Point: 50°   Wind: 17mph
Humidity: 88%   Direction: 30°NNE
Pressure: 29.86"   Gusts: 28mph
Location:  40.79°N, 74.57°W
Report Text: KMMU 222145Z 03015G24KT 5SM -RA BR OVC022 12/10 A2986
Loading
Personal Weather Stations






























Interactive Weather Map
Tropical Storm Tracking
New forecast layout! Learn more

10-Day Weather Forecast

Advertisements
Track Severe Weather on mobile